Gibson, Iowa
Current Conditions -  °F | °C
As of 5:15 AM on Wednesday 26 Nov 2014 (Local Time) from KOOA Reporting Station
Overcast Overcast  
Wind Chill: 16°   Ceiling: 6500
Heat Index: 27°   Visibility: 10mi
Dew Point: 22°   Wind: 13mph
Humidity: 83%   Direction: 130°SE
Pressure: 29.95"   Gusts: NA
Location:  41.48°N, 92.39°W
Report Text: KOOA 261115Z AUTO 13011KT 10SM OVC065 M03/M05 A2995 RMK AO2 T10301055
Loading
Personal Weather Stations






























Interactive Weather Map New forecast layout! Learn more

10-Day Weather Forecast

Advertisements
Track Severe Weather on mobile